sensor_id;sensor_type;location;lat;lon;timestamp;pressure;altitude;pressure_sealevel;temperature;humidity
50105;BME280;47690;39.202;-77.198;2023-02-28T00:00:14;98926.22;;;35.38;9.82
50105;BME280;47690;39.202;-77.198;2023-02-28T00:02:44;98954.19;;;36.49;8.96
50105;BME280;47690;39.202;-77.198;2023-02-28T00:05:16;98975.22;;;36.83;8.99
50105;BME280;47690;39.202;-77.198;2023-02-28T00:07:47;98981.41;;;35.90;9.62
50105;BME280;47690;39.202;-77.198;2023-02-28T00:10:25;98972.44;;;35.59;10.18
50105;BME280;47690;39.202;-77.198;2023-02-28T00:13:00;98978.38;;;35.61;9.68
50105;BME280;47690;39.202;-77.198;2023-02-28T00:15:33;99001.72;;;35.79;9.84
50105;BME280;47690;39.202;-77.198;2023-02-28T00:18:02;98992.31;;;35.70;9.75
50105;BME280;47690;39.202;-77.198;2023-02-28T00:20:32;98952.88;;;35.59;9.93
50105;BME280;47690;39.202;-77.198;2023-02-28T00:23:01;98951.44;;;35.56;9.92
50105;BME280;47690;39.202;-77.198;2023-02-28T00:25:30;98973.06;;;35.54;9.81
50105;BME280;47690;39.202;-77.198;2023-02-28T00:27:59;98959.00;;;35.66;10.00
50105;BME280;47690;39.202;-77.198;2023-02-28T00:30:28;98974.31;;;35.59;10.20
50105;BME280;47690;39.202;-77.198;2023-02-28T00:32:56;98991.38;;;35.58;10.11
50105;BME280;47690;39.202;-77.198;2023-02-28T00:35:28;98903.03;;;36.51;9.58
50105;BME280;47690;39.202;-77.198;2023-02-28T00:37:57;98788.63;;;36.87;9.01
50105;BME280;47690;39.202;-77.198;2023-02-28T00:40:29;98807.00;;;35.42;9.92
50105;BME280;47690;39.202;-77.198;2023-02-28T00:43:00;98768.09;;;35.21;10.21
50105;BME280;47690;39.202;-77.198;2023-02-28T00:45:30;98756.06;;;35.05;10.14
50105;BME280;47690;39.202;-77.198;2023-02-28T00:47:59;98770.16;;;34.94;10.33
50105;BME280;47690;39.202;-77.198;2023-02-28T00:50:28;98773.47;;;34.96;10.48
50105;BME280;47690;39.202;-77.198;2023-02-28T00:52:59;98773.41;;;34.77;10.39
50105;BME280;47690;39.202;-77.198;2023-02-28T00:55:28;98749.31;;;34.77;10.38
50105;BME280;47690;39.202;-77.198;2023-02-28T00:57:56;98748.28;;;34.78;10.23
50105;BME280;47690;39.202;-77.198;2023-02-28T01:00:26;98690.13;;;34.73;10.51
50105;BME280;47690;39.202;-77.198;2023-02-28T01:02:56;98649.84;;;34.68;10.43
50105;BME280;47690;39.202;-77.198;2023-02-28T01:05:26;98683.44;;;34.64;10.52
50105;BME280;47690;39.202;-77.198;2023-02-28T01:07:56;98727.88;;;34.58;10.50
50105;BME280;47690;39.202;-77.198;2023-02-28T01:10:28;98744.53;;;34.60;10.73
50105;BME280;47690;39.202;-77.198;2023-02-28T01:13:00;98780.59;;;34.77;10.78
50105;BME280;47690;39.202;-77.198;2023-02-28T01:15:30;98758.59;;;34.74;10.62
50105;BME280;47690;39.202;-77.198;2023-02-28T01:18:00;98719.59;;;34.67;10.60
50105;BME280;47690;39.202;-77.198;2023-02-28T01:20:32;98738.59;;;34.52;10.80
50105;BME280;47690;39.202;-77.198;2023-02-28T01:23:02;98757.13;;;34.46;10.66
50105;BME280;47690;39.202;-77.198;2023-02-28T01:25:30;98748.72;;;34.43;10.74
50105;BME280;47690;39.202;-77.198;2023-02-28T01:28:05;98718.09;;;34.45;10.67
50105;BME280;47690;39.202;-77.198;2023-02-28T01:30:34;98704.31;;;34.49;10.71
50105;BME280;47690;39.202;-77.198;2023-02-28T01:33:03;98684.66;;;34.36;10.82
50105;BME280;47690;39.202;-77.198;2023-02-28T01:35:36;98692.47;;;34.38;11.08
50105;BME280;47690;39.202;-77.198;2023-02-28T01:38:06;98687.31;;;34.36;11.00
50105;BME280;47690;39.202;-77.198;2023-02-28T01:40:48;98673.75;;;34.38;10.64
50105;BME280;47690;39.202;-77.198;2023-02-28T01:44:54;98668.16;;;34.39;10.90
50105;BME280;47690;39.202;-77.198;2023-02-28T01:46:12;98669.75;;;34.47;10.35
50105;BME280;47690;39.202;-77.198;2023-02-28T01:48:57;98662.34;;;34.49;11.16
50105;BME280;47690;39.202;-77.198;2023-02-28T01:54:11;98650.28;;;34.40;11.03
50105;BME280;47690;39.202;-77.198;2023-02-28T01:56:47;98638.56;;;34.41;10.88
50105;BME280;47690;39.202;-77.198;2023-02-28T01:59:29;98622.97;;;34.38;11.18
50105;BME280;47690;39.202;-77.198;2023-02-28T02:02:02;98631.66;;;34.33;10.97
50105;BME280;47690;39.202;-77.198;2023-02-28T02:04:40;98626.53;;;34.31;10.87
50105;BME280;47690;39.202;-77.198;2023-02-28T02:07:14;98619.28;;;34.39;10.84
50105;BME280;47690;39.202;-77.198;2023-02-28T02:09:45;98615.75;;;34.38;10.62
50105;BME280;47690;39.202;-77.198;2023-02-28T02:32:35;98566.72;;;34.51;10.59
50105;BME280;47690;39.202;-77.198;2023-02-28T02:37:47;98556.44;;;34.55;10.84
50105;BME280;47690;39.202;-77.198;2023-02-28T02:40:27;98553.03;;;34.66;10.76
50105;BME280;47690;39.202;-77.198;2023-02-28T02:43:08;98542.78;;;34.63;10.96
50105;BME280;47690;39.202;-77.198;2023-02-28T02:45:52;98535.41;;;34.58;10.87
50105;BME280;47690;39.202;-77.198;2023-02-28T02:48:27;98526.41;;;34.53;10.92
50105;BME280;47690;39.202;-77.198;2023-02-28T02:51:01;98507.69;;;34.34;10.61
50105;BME280;47690;39.202;-77.198;2023-02-28T02:53:37;98502.56;;;34.32;10.97
50105;BME280;47690;39.202;-77.198;2023-02-28T02:56:08;98495.44;;;34.26;10.64
50105;BME280;47690;39.202;-77.198;2023-02-28T02:58:40;98483.34;;;34.24;10.88
50105;BME280;47690;39.202;-77.198;2023-02-28T03:01:14;98465.47;;;34.24;10.95
50105;BME280;47690;39.202;-77.198;2023-02-28T03:03:47;98476.06;;;34.31;10.91
50105;BME280;47690;39.202;-77.198;2023-02-28T03:06:16;98469.09;;;34.30;10.69
50105;BME280;47690;39.202;-77.198;2023-02-28T03:08:45;98463.69;;;34.37;10.91
50105;BME280;47690;39.202;-77.198;2023-02-28T03:11:15;98468.56;;;34.21;10.96
50105;BME280;47690;39.202;-77.198;2023-02-28T03:24:58;98479.50;;;34.57;11.26
50105;BME280;47690;39.202;-77.198;2023-02-28T03:28:00;98472.22;;;35.13;10.86
50105;BME280;47690;39.202;-77.198;2023-02-28T03:30:49;98482.88;;;34.83;10.90
50105;BME280;47690;39.202;-77.198;2023-02-28T03:33:42;98498.44;;;35.05;10.91
50105;BME280;47690;39.202;-77.198;2023-02-28T03:36:19;98526.25;;;35.04;10.65
50105;BME280;47690;39.202;-77.198;2023-02-28T03:38:54;98531.69;;;34.97;10.63
50105;BME280;47690;39.202;-77.198;2023-02-28T03:41:35;98559.59;;;35.01;10.73
50105;BME280;47690;39.202;-77.198;2023-02-28T03:44:51;98574.09;;;35.12;10.74
50105;BME280;47690;39.202;-77.198;2023-02-28T03:47:29;98647.38;;;35.30;10.81
50105;BME280;47690;39.202;-77.198;2023-02-28T03:50:27;98657.25;;;35.29;10.87
50105;BME280;47690;39.202;-77.198;2023-02-28T03:53:18;98645.97;;;35.08;10.92
50105;BME280;47690;39.202;-77.198;2023-02-28T03:55:54;98634.97;;;34.98;10.89
50105;BME280;47690;39.202;-77.198;2023-02-28T03:59:57;98621.94;;;35.20;11.00
50105;BME280;47690;39.202;-77.198;2023-02-28T04:01:54;98619.59;;;35.12;10.44
50105;BME280;47690;39.202;-77.198;2023-02-28T04:04:25;98616.66;;;34.95;10.61
50105;BME280;47690;39.202;-77.198;2023-02-28T04:07:02;98603.28;;;34.95;11.02
50105;BME280;47690;39.202;-77.198;2023-02-28T04:09:32;98577.22;;;34.90;10.76
50105;BME280;47690;39.202;-77.198;2023-02-28T04:12:00;98574.13;;;34.93;11.03
50105;BME280;47690;39.202;-77.198;2023-02-28T04:14:30;98563.25;;;34.88;10.89
50105;BME280;47690;39.202;-77.198;2023-02-28T04:16:59;98529.06;;;34.90;10.61
50105;BME280;47690;39.202;-77.198;2023-02-28T04:19:28;98528.28;;;34.90;10.70
50105;BME280;47690;39.202;-77.198;2023-02-28T04:21:57;98509.69;;;34.95;10.74
50105;BME280;47690;39.202;-77.198;2023-02-28T04:24:27;98483.66;;;35.02;10.87
50105;BME280;47690;39.202;-77.198;2023-02-28T04:26:58;98469.91;;;34.98;10.82
50105;BME280;47690;39.202;-77.198;2023-02-28T04:29:30;98464.22;;;34.95;10.75
50105;BME280;47690;39.202;-77.198;2023-02-28T04:32:03;98469.00;;;35.05;10.79
50105;BME280;47690;39.202;-77.198;2023-02-28T04:34:32;98463.19;;;34.96;10.89
50105;BME280;47690;39.202;-77.198;2023-02-28T04:37:02;98443.06;;;34.93;11.06
50105;BME280;47690;39.202;-77.198;2023-02-28T04:39:41;98432.47;;;34.98;10.92
50105;BME280;47690;39.202;-77.198;2023-02-28T04:42:11;98429.56;;;35.00;10.79
50105;BME280;47690;39.202;-77.198;2023-02-28T04:44:40;98424.00;;;35.01;10.92
50105;BME280;47690;39.202;-77.198;2023-02-28T04:47:09;98419.72;;;35.00;10.79
50105;BME280;47690;39.202;-77.198;2023-02-28T04:49:39;98414.56;;;34.99;10.67
50105;BME280;47690;39.202;-77.198;2023-02-28T04:52:09;98395.50;;;34.95;10.66
50105;BME280;47690;39.202;-77.198;2023-02-28T04:54:38;98389.50;;;35.12;10.75
50105;BME280;47690;39.202;-77.198;2023-02-28T04:57:08;98382.31;;;35.12;10.55
50105;BME280;47690;39.202;-77.198;2023-02-28T04:59:36;98370.81;;;35.48;10.22
50105;BME280;47690;39.202;-77.198;2023-02-28T05:02:05;98376.75;;;35.74;10.53
50105;BME280;47690;39.202;-77.198;2023-02-28T05:04:36;98356.88;;;35.70;10.39
50105;BME280;47690;39.202;-77.198;2023-02-28T05:07:05;98341.50;;;35.65;10.20
50105;BME280;47690;39.202;-77.198;2023-02-28T05:09:34;98340.56;;;35.71;10.69
50105;BME280;47690;39.202;-77.198;2023-02-28T05:12:02;98344.84;;;35.72;10.24
50105;BME280;47690;39.202;-77.198;2023-02-28T05:14:32;98350.47;;;35.71;10.49
50105;BME280;47690;39.202;-77.198;2023-02-28T05:17:00;98347.53;;;35.72;10.31
50105;BME280;47690;39.202;-77.198;2023-02-28T05:19:29;98355.00;;;35.70;10.59
50105;BME280;47690;39.202;-77.198;2023-02-28T05:21:59;98355.47;;;35.67;10.48
50105;BME280;47690;39.202;-77.198;2023-02-28T05:24:28;98351.97;;;35.66;10.61
50105;BME280;47690;39.202;-77.198;2023-02-28T05:26:56;98344.09;;;35.60;10.39
50105;BME280;47690;39.202;-77.198;2023-02-28T05:29:28;98350.50;;;35.59;10.45
50105;BME280;47690;39.202;-77.198;2023-02-28T05:31:59;98326.75;;;35.62;10.88
50105;BME280;47690;39.202;-77.198;2023-02-28T05:34:28;98341.59;;;35.46;10.62
50105;BME280;47690;39.202;-77.198;2023-02-28T05:37:00;98351.38;;;35.52;10.61
50105;BME280;47690;39.202;-77.198;2023-02-28T05:39:29;98365.50;;;35.60;10.57
50105;BME280;47690;39.202;-77.198;2023-02-28T05:42:00;98368.03;;;35.66;10.48
50105;BME280;47690;39.202;-77.198;2023-02-28T05:44:30;98363.50;;;35.67;10.56
50105;BME280;47690;39.202;-77.198;2023-02-28T05:46:59;98363.88;;;35.59;10.57
50105;BME280;47690;39.202;-77.198;2023-02-28T05:49:30;98354.88;;;35.65;10.55
50105;BME280;47690;39.202;-77.198;2023-02-28T05:51:59;98343.38;;;35.64;10.66
50105;BME280;47690;39.202;-77.198;2023-02-28T05:54:32;98350.00;;;35.62;10.63
50105;BME280;47690;39.202;-77.198;2023-02-28T05:57:02;98351.63;;;35.63;10.35
50105;BME280;47690;39.202;-77.198;2023-02-28T05:59:40;98348.59;;;35.71;10.54
50105;BME280;47690;39.202;-77.198;2023-02-28T06:02:13;98360.84;;;35.67;10.69
50105;BME280;47690;39.202;-77.198;2023-02-28T06:04:43;98375.84;;;35.68;10.44
50105;BME280;47690;39.202;-77.198;2023-02-28T06:07:12;98359.31;;;35.71;10.58
50105;BME280;47690;39.202;-77.198;2023-02-28T06:09:41;98364.22;;;35.74;10.65
50105;BME280;47690;39.202;-77.198;2023-02-28T06:12:11;98374.78;;;35.81;10.43
50105;BME280;47690;39.202;-77.198;2023-02-28T06:14:41;98353.34;;;35.81;10.69
50105;BME280;47690;39.202;-77.198;2023-02-28T06:17:10;98360.13;;;35.72;10.60
50105;BME280;47690;39.202;-77.198;2023-02-28T06:19:40;98336.81;;;35.72;10.82
50105;BME280;47690;39.202;-77.198;2023-02-28T06:22:10;98372.59;;;35.78;10.52
50105;BME280;47690;39.202;-77.198;2023-02-28T06:24:39;98340.56;;;35.71;10.84
50105;BME280;47690;39.202;-77.198;2023-02-28T06:27:08;98392.59;;;35.75;10.71
50105;BME280;47690;39.202;-77.198;2023-02-28T06:29:38;98337.28;;;35.81;10.42
50105;BME280;47690;39.202;-77.198;2023-02-28T06:32:08;98342.53;;;35.64;10.45
50105;BME280;47690;39.202;-77.198;2023-02-28T06:34:38;98364.09;;;35.69;10.65
50105;BME280;47690;39.202;-77.198;2023-02-28T06:37:08;98365.69;;;35.82;10.58
50105;BME280;47690;39.202;-77.198;2023-02-28T06:39:37;98379.34;;;35.80;10.37
50105;BME280;47690;39.202;-77.198;2023-02-28T06:42:06;98370.47;;;35.80;10.44
50105;BME280;47690;39.202;-77.198;2023-02-28T06:44:35;98362.31;;;35.75;10.49
50105;BME280;47690;39.202;-77.198;2023-02-28T06:47:06;98356.63;;;35.71;10.58
50105;BME280;47690;39.202;-77.198;2023-02-28T06:49:35;98360.13;;;35.72;10.53
50105;BME280;47690;39.202;-77.198;2023-02-28T06:52:04;98341.75;;;35.63;10.64
50105;BME280;47690;39.202;-77.198;2023-02-28T06:54:36;98340.91;;;35.63;10.75
50105;BME280;47690;39.202;-77.198;2023-02-28T06:57:05;98342.19;;;35.60;10.90
50105;BME280;47690;39.202;-77.198;2023-02-28T06:59:34;98344.78;;;35.67;10.72
50105;BME280;47690;39.202;-77.198;2023-02-28T07:02:05;98334.97;;;35.73;10.85
50105;BME280;47690;39.202;-77.198;2023-02-28T07:04:36;98336.81;;;35.72;10.65
50105;BME280;47690;39.202;-77.198;2023-02-28T07:07:05;98346.22;;;36.11;10.52
50105;BME280;47690;39.202;-77.198;2023-02-28T07:09:35;98351.91;;;36.02;10.65
50105;BME280;47690;39.202;-77.198;2023-02-28T07:12:04;98356.66;;;36.24;10.44
50105;BME280;47690;39.202;-77.198;2023-02-28T07:14:36;98352.16;;;36.13;10.58
50105;BME280;47690;39.202;-77.198;2023-02-28T07:17:08;98340.91;;;36.28;10.70
50105;BME280;47690;39.202;-77.198;2023-02-28T07:19:37;98341.22;;;36.14;10.37
50105;BME280;47690;39.202;-77.198;2023-02-28T07:22:10;98356.84;;;36.34;10.49
50105;BME280;47690;39.202;-77.198;2023-02-28T07:24:43;98359.72;;;36.04;10.14
50105;BME280;47690;39.202;-77.198;2023-02-28T07:27:15;98371.78;;;36.30;10.20
50105;BME280;47690;39.202;-77.198;2023-02-28T07:29:53;98371.97;;;36.12;10.28
50105;BME280;47690;39.202;-77.198;2023-02-28T07:32:25;98366.38;;;35.89;10.56
50105;BME280;47690;39.202;-77.198;2023-02-28T07:34:55;98378.03;;;35.83;10.51
50105;BME280;47690;39.202;-77.198;2023-02-28T07:37:27;98375.47;;;35.88;10.62
50105;BME280;47690;39.202;-77.198;2023-02-28T07:40:00;98373.63;;;35.89;10.81
50105;BME280;47690;39.202;-77.198;2023-02-28T07:42:29;98365.25;;;35.85;10.75
50105;BME280;47690;39.202;-77.198;2023-02-28T07:44:59;98361.19;;;35.59;10.59
50105;BME280;47690;39.202;-77.198;2023-02-28T07:47:32;98362.88;;;35.53;11.12
50105;BME280;47690;39.202;-77.198;2023-02-28T07:50:02;98357.78;;;35.51;10.86
50105;BME280;47690;39.202;-77.198;2023-02-28T07:52:31;98370.13;;;35.52;10.68
50105;BME280;47690;39.202;-77.198;2023-02-28T07:55:02;98362.31;;;35.51;10.99
50105;BME280;47690;39.202;-77.198;2023-02-28T07:57:35;98356.88;;;35.58;10.72
50105;BME280;47690;39.202;-77.198;2023-02-28T08:00:07;98368.59;;;35.57;10.92
50105;BME280;47690;39.202;-77.198;2023-02-28T08:02:40;98367.66;;;35.51;10.75
50105;BME280;47690;39.202;-77.198;2023-02-28T08:05:10;98371.84;;;35.47;10.93
50105;BME280;47690;39.202;-77.198;2023-02-28T08:07:39;98370.56;;;35.49;10.96
50105;BME280;47690;39.202;-77.198;2023-02-28T08:10:08;98365.44;;;35.36;10.61
50105;BME280;47690;39.202;-77.198;2023-02-28T08:12:40;98373.63;;;35.65;10.91
50105;BME280;47690;39.202;-77.198;2023-02-28T08:15:09;98373.97;;;35.80;10.88
50105;BME280;47690;39.202;-77.198;2023-02-28T08:17:38;98365.09;;;35.92;10.66
50105;BME280;47690;39.202;-77.198;2023-02-28T08:20:08;98382.34;;;35.96;10.50
50105;BME280;47690;39.202;-77.198;2023-02-28T08:22:39;98364.53;;;35.90;10.67
50105;BME280;47690;39.202;-77.198;2023-02-28T08:25:11;98366.25;;;35.96;10.56
50105;BME280;47690;39.202;-77.198;2023-02-28T08:27:44;98366.84;;;35.98;10.48
50105;BME280;47690;39.202;-77.198;2023-02-28T08:30:14;98370.69;;;35.78;10.76
50105;BME280;47690;39.202;-77.198;2023-02-28T08:32:43;98376.28;;;35.89;10.53
50105;BME280;47690;39.202;-77.198;2023-02-28T08:35:13;98368.50;;;35.87;10.64
50105;BME280;47690;39.202;-77.198;2023-02-28T08:37:43;98361.16;;;35.82;10.78
50105;BME280;47690;39.202;-77.198;2023-02-28T08:40:13;98367.31;;;35.83;10.45
50105;BME280;47690;39.202;-77.198;2023-02-28T08:42:47;98362.31;;;35.87;10.48
50105;BME280;47690;39.202;-77.198;2023-02-28T08:45:16;98374.66;;;35.88;10.34
50105;BME280;47690;39.202;-77.198;2023-02-28T08:47:45;98366.03;;;35.86;10.91
50105;BME280;47690;39.202;-77.198;2023-02-28T08:50:15;98384.34;;;35.65;10.85
50105;BME280;47690;39.202;-77.198;2023-02-28T08:52:45;98387.56;;;36.03;10.73
50105;BME280;47690;39.202;-77.198;2023-02-28T08:55:15;98383.59;;;36.05;10.45
50105;BME280;47690;39.202;-77.198;2023-02-28T08:57:44;98383.75;;;36.11;10.19
50105;BME280;47690;39.202;-77.198;2023-02-28T09:00:14;98389.59;;;35.72;10.73
50105;BME280;47690;39.202;-77.198;2023-02-28T09:02:45;98391.88;;;37.03;10.26
50105;BME280;47690;39.202;-77.198;2023-02-28T09:05:15;98403.31;;;37.62;9.94
50105;BME280;47690;39.202;-77.198;2023-02-28T09:07:45;98396.69;;;38.09;9.46
50105;BME280;47690;39.202;-77.198;2023-02-28T09:10:16;98391.66;;;37.95;9.54
50105;BME280;47690;39.202;-77.198;2023-02-28T09:12:45;98396.38;;;38.28;8.99
50105;BME280;47690;39.202;-77.198;2023-02-28T09:15:19;98401.56;;;37.55;9.32
50105;BME280;47690;39.202;-77.198;2023-02-28T09:17:48;98407.50;;;37.40;9.41
50105;BME280;47690;39.202;-77.198;2023-02-28T09:20:17;98415.25;;;37.20;9.94
50105;BME280;47690;39.202;-77.198;2023-02-28T09:22:47;98424.84;;;37.15;10.03
50105;BME280;47690;39.202;-77.198;2023-02-28T09:25:17;98428.25;;;37.11;9.90
50105;BME280;47690;39.202;-77.198;2023-02-28T09:27:47;98426.19;;;37.01;9.65
50105;BME280;47690;39.202;-77.198;2023-02-28T09:30:17;98431.13;;;36.92;9.60
50105;BME280;47690;39.202;-77.198;2023-02-28T09:32:47;98431.34;;;36.90;10.17
50105;BME280;47690;39.202;-77.198;2023-02-28T09:35:23;98428.56;;;37.31;9.55
50105;BME280;47690;39.202;-77.198;2023-02-28T09:37:56;98429.59;;;35.42;10.84
50105;BME280;47690;39.202;-77.198;2023-02-28T09:40:28;98433.03;;;35.31;10.90
50105;BME280;47690;39.202;-77.198;2023-02-28T09:43:01;98435.06;;;35.05;11.02
50105;BME280;47690;39.202;-77.198;2023-02-28T09:45:36;98443.31;;;35.04;11.28
50105;BME280;47690;39.202;-77.198;2023-02-28T09:48:16;98459.44;;;35.16;11.29
50105;BME280;47690;39.202;-77.198;2023-02-28T09:50:50;98465.13;;;35.19;11.13
50105;BME280;47690;39.202;-77.198;2023-02-28T09:53:36;98465.28;;;35.36;11.41
50105;BME280;47690;39.202;-77.198;2023-02-28T09:56:17;98470.88;;;35.35;11.29
50105;BME280;47690;39.202;-77.198;2023-02-28T09:58:56;98471.56;;;35.30;11.14
50105;BME280;47690;39.202;-77.198;2023-02-28T10:01:39;98474.94;;;35.37;11.30
50105;BME280;47690;39.202;-77.198;2023-02-28T10:07:23;98488.25;;;35.56;11.12
50105;BME280;47690;39.202;-77.198;2023-02-28T10:10:04;98481.22;;;35.43;10.90
50105;BME280;47690;39.202;-77.198;2023-02-28T10:12:39;98488.91;;;35.39;11.09
50105;BME280;47690;39.202;-77.198;2023-02-28T10:15:16;98488.81;;;35.34;11.42
50105;BME280;47690;39.202;-77.198;2023-02-28T10:17:49;98499.94;;;35.31;11.08
50105;BME280;47690;39.202;-77.198;2023-02-28T10:20:39;98493.91;;;35.36;11.01
50105;BME280;47690;39.202;-77.198;2023-02-28T10:23:31;98504.16;;;35.39;11.14
50105;BME280;47690;39.202;-77.198;2023-02-28T10:26:11;98507.75;;;35.33;11.33
50105;BME280;47690;39.202;-77.198;2023-02-28T10:28:42;98505.88;;;35.21;11.26
50105;BME280;47690;39.202;-77.198;2023-02-28T10:31:18;98506.31;;;35.18;11.36
50105;BME280;47690;39.202;-77.198;2023-02-28T10:33:51;98514.34;;;35.18;10.89
50105;BME280;47690;39.202;-77.198;2023-02-28T10:36:21;98542.28;;;35.22;11.15
50105;BME280;47690;39.202;-77.198;2023-02-28T10:38:55;98551.59;;;35.20;11.32
50105;BME280;47690;39.202;-77.198;2023-02-28T10:41:32;98542.53;;;35.33;11.22
50105;BME280;47690;39.202;-77.198;2023-02-28T10:44:20;98547.25;;;35.49;11.11
50105;BME280;47690;39.202;-77.198;2023-02-28T10:46:52;98556.75;;;35.33;11.15
50105;BME280;47690;39.202;-77.198;2023-02-28T10:49:28;98567.09;;;35.30;11.32
50105;BME280;47690;39.202;-77.198;2023-02-28T10:52:00;98576.06;;;35.35;11.22
50105;BME280;47690;39.202;-77.198;2023-02-28T10:54:31;98573.03;;;35.32;11.10
50105;BME280;47690;39.202;-77.198;2023-02-28T10:57:23;98582.34;;;35.60;11.27
50105;BME280;47690;39.202;-77.198;2023-02-28T11:00:17;98608.69;;;35.75;10.83
50105;BME280;47690;39.202;-77.198;2023-02-28T11:02:48;98618.94;;;35.66;10.76
50105;BME280;47690;39.202;-77.198;2023-02-28T11:08:17;98613.69;;;35.71;11.11
50105;BME280;47690;39.202;-77.198;2023-02-28T11:10:54;98624.06;;;35.49;10.83
50105;BME280;47690;39.202;-77.198;2023-02-28T11:13:29;98627.34;;;35.32;11.22
50105;BME280;47690;39.202;-77.198;2023-02-28T11:16:03;98629.31;;;35.25;11.08
50105;BME280;47690;39.202;-77.198;2023-02-28T11:21:09;98648.34;;;35.35;11.10
50105;BME280;47690;39.202;-77.198;2023-02-28T11:23:45;98650.31;;;35.40;11.00
50105;BME280;47690;39.202;-77.198;2023-02-28T11:26:42;98644.72;;;35.60;11.32
50105;BME280;47690;39.202;-77.198;2023-02-28T11:34:41;98666.50;;;35.64;10.80
50105;BME280;47690;39.202;-77.198;2023-02-28T11:37:20;98676.66;;;35.62;11.13
50105;BME280;47690;39.202;-77.198;2023-02-28T11:39:49;98678.56;;;35.54;11.12
50105;BME280;47690;39.202;-77.198;2023-02-28T11:42:23;98683.09;;;35.54;10.81
50105;BME280;47690;39.202;-77.198;2023-02-28T11:45:13;98692.22;;;35.84;11.03
50105;BME280;47690;39.202;-77.198;2023-02-28T11:56:33;98710.81;;;36.52;10.53
50105;BME280;47690;39.202;-77.198;2023-02-28T12:02:26;98745.34;;;35.99;11.05
50105;BME280;47690;39.202;-77.198;2023-02-28T12:13:07;98780.88;;;35.94;11.03
50105;BME280;47690;39.202;-77.198;2023-02-28T12:19:18;98793.78;;;36.46;10.40
50105;BME280;47690;39.202;-77.198;2023-02-28T12:21:59;98784.53;;;36.73;10.52
50105;BME280;47690;39.202;-77.198;2023-02-28T12:27:16;98782.78;;;36.05;10.69
50105;BME280;47690;39.202;-77.198;2023-02-28T12:29:54;98795.31;;;35.93;10.83
50105;BME280;47690;39.202;-77.198;2023-02-28T12:35:12;98773.19;;;36.47;10.41
50105;BME280;47690;39.202;-77.198;2023-02-28T12:37:50;98797.94;;;36.30;10.55
50105;BME280;47690;39.202;-77.198;2023-02-28T12:40:23;98841.78;;;36.36;10.61
50105;BME280;47690;39.202;-77.198;2023-02-28T12:43:07;98805.84;;;36.06;10.61
50105;BME280;47690;39.202;-77.198;2023-02-28T12:48:18;98843.22;;;35.45;11.23
50105;BME280;47690;39.202;-77.198;2023-02-28T12:50:51;98832.63;;;35.50;11.02
50105;BME280;47690;39.202;-77.198;2023-02-28T12:56:24;98855.16;;;35.68;10.97
50105;BME280;47690;39.202;-77.198;2023-02-28T13:10:44;98878.72;;;35.96;11.21
50105;BME280;47690;39.202;-77.198;2023-02-28T13:13:18;98880.41;;;36.47;10.66
50105;BME280;47690;39.202;-77.198;2023-02-28T13:18:37;98898.22;;;36.60;10.51
50105;BME280;47690;39.202;-77.198;2023-02-28T13:21:26;98886.31;;;36.68;10.71
50105;BME280;47690;39.202;-77.198;2023-02-28T13:24:02;98886.03;;;36.57;10.54
50105;BME280;47690;39.202;-77.198;2023-02-28T13:35:34;98927.13;;;36.39;10.48
50105;BME280;47690;39.202;-77.198;2023-02-28T13:37:37;98921.38;;;36.54;10.71
50105;BME280;47690;39.202;-77.198;2023-02-28T13:40:27;98928.22;;;36.50;10.60
50105;BME280;47690;39.202;-77.198;2023-02-28T13:42:59;98927.75;;;36.53;10.80
50105;BME280;47690;39.202;-77.198;2023-02-28T13:45:30;98931.94;;;36.49;10.94
50105;BME280;47690;39.202;-77.198;2023-02-28T13:48:19;98941.22;;;36.65;10.91
50105;BME280;47690;39.202;-77.198;2023-02-28T13:50:56;98953.41;;;36.30;10.84
50105;BME280;47690;39.202;-77.198;2023-02-28T13:53:53;98963.06;;;36.50;10.81
50105;BME280;47690;39.202;-77.198;2023-02-28T14:09:03;98981.84;;;36.99;10.51
50105;BME280;47690;39.202;-77.198;2023-02-28T14:11:41;98973.06;;;36.92;10.24
50105;BME280;47690;39.202;-77.198;2023-02-28T14:17:08;98972.16;;;36.68;10.55
50105;BME280;47690;39.202;-77.198;2023-02-28T14:19:44;98958.06;;;36.72;11.02
50105;BME280;47690;39.202;-77.198;2023-02-28T14:22:40;98964.06;;;36.86;10.95
50105;BME280;47690;39.202;-77.198;2023-02-28T14:28:29;98953.38;;;37.41;10.52
50105;BME280;47690;39.202;-77.198;2023-02-28T14:31:15;98953.56;;;37.27;10.43
50105;BME280;47690;39.202;-77.198;2023-02-28T14:36:36;98972.38;;;37.39;10.46
50105;BME280;47690;39.202;-77.198;2023-02-28T14:39:15;98988.72;;;36.95;11.02
50105;BME280;47690;39.202;-77.198;2023-02-28T14:41:45;98982.03;;;37.16;10.74
50105;BME280;47690;39.202;-77.198;2023-02-28T14:44:24;98987.06;;;37.25;10.75
50105;BME280;47690;39.202;-77.198;2023-02-28T14:47:03;98982.06;;;37.40;10.45
50105;BME280;47690;39.202;-77.198;2023-02-28T14:49:44;98991.53;;;37.55;10.79
50105;BME280;47690;39.202;-77.198;2023-02-28T14:54:53;98986.22;;;37.24;10.70
50105;BME280;47690;39.202;-77.198;2023-02-28T14:57:29;98992.22;;;37.26;10.85
50105;BME280;47690;39.202;-77.198;2023-02-28T15:00:06;98997.59;;;37.26;10.70
50105;BME280;47690;39.202;-77.198;2023-02-28T15:02:40;99000.97;;;37.34;10.33
50105;BME280;47690;39.202;-77.198;2023-02-28T15:07:45;98998.28;;;38.65;10.09
50105;BME280;47690;39.202;-77.198;2023-02-28T15:10:23;98996.13;;;38.26;10.29
50105;BME280;47690;39.202;-77.198;2023-02-28T15:16:03;99004.44;;;37.89;10.44
50105;BME280;47690;39.202;-77.198;2023-02-28T15:18:52;99006.06;;;37.66;11.04
50105;BME280;47690;39.202;-77.198;2023-02-28T15:21:36;99013.31;;;37.65;11.05
50105;BME280;47690;39.202;-77.198;2023-02-28T15:24:34;99020.09;;;37.80;10.88
50105;BME280;47690;39.202;-77.198;2023-02-28T15:27:16;99018.69;;;38.01;10.85
50105;BME280;47690;39.202;-77.198;2023-02-28T15:29:55;99033.50;;;38.39;10.62
50105;BME280;47690;39.202;-77.198;2023-02-28T15:32:29;99030.38;;;38.43;10.55